createdAt,value
2023-02-19T00:03:50.791Z,99876.90
2023-02-19T00:08:52.786Z,99866.38
2023-02-19T00:13:55.876Z,99867.39
2023-02-19T00:18:59.632Z,99858.56
2023-02-19T00:24:04.472Z,99856.54
2023-02-19T00:29:06.115Z,99852.61
2023-02-19T00:34:08.221Z,99859.77
2023-02-19T00:39:14.158Z,99860.79
2023-02-19T00:44:16.198Z,99856.19
2023-02-19T00:49:21.189Z,99848.02
2023-02-19T00:54:24.032Z,99840.02
2023-02-19T00:59:25.867Z,99843.94
2023-02-19T01:04:27.444Z,99843.08
2023-02-19T01:09:29.020Z,99848.69
2023-02-19T01:14:30.493Z,99849.70
2023-02-19T01:19:32.015Z,99851.55
2023-02-19T01:24:33.891Z,99854.27
2023-02-19T01:29:35.479Z,99849.52
2023-02-19T01:34:37.029Z,99846.96
2023-02-19T01:39:39.611Z,99853.26
2023-02-19T01:44:47.203Z,99859.36
2023-02-19T01:49:54.657Z,99862.91
2023-02-19T01:54:57.644Z,99863.41
2023-02-19T02:00:06.045Z,99869.20
2023-02-19T02:05:14.322Z,99865.63
2023-02-19T02:10:21.741Z,99856.12
2023-02-19T02:15:29.306Z,99854.23
2023-02-19T02:21:15.562Z,99852.16
2023-02-19T02:26:56.212Z,99847.92
2023-02-19T02:32:01.976Z,99853.02
2023-02-19T02:37:05.484Z,99848.10
2023-02-19T02:42:25.799Z,99845.22
2023-02-19T02:47:43.745Z,99848.64
2023-02-19T02:53:09.716Z,99848.64
2023-02-19T02:58:14.219Z,99851.20
2023-02-19T03:03:19.756Z,99843.20
2023-02-19T03:08:45.372Z,99839.94
2023-02-19T03:14:06.147Z,99824.78
2023-02-19T03:19:20.551Z,99818.67
2023-02-19T03:24:45.802Z,99818.70
2023-02-19T03:29:50.412Z,99823.47
2023-02-19T03:34:57.847Z,99831.30
2023-02-19T03:39:59.647Z,99836.04
2023-02-19T03:45:19.701Z,99827.88
2023-02-19T03:50:36.965Z,99819.88
2023-02-19T03:55:44.681Z,99822.25
2023-02-19T04:01:07.204Z,99816.84
2023-02-19T04:06:14.249Z,99811.41
2023-02-19T04:11:18.720Z,99812.63
2023-02-19T04:16:28.503Z,99806.32
2023-02-19T04:21:32.422Z,99802.55
2023-02-19T04:26:35.715Z,99796.23
2023-02-19T04:31:38.856Z,99793.03
2023-02-19T04:36:40.374Z,99796.45
2023-02-19T04:41:41.942Z,99785.27
2023-02-19T04:46:43.424Z,99792.07
2023-02-19T04:51:44.887Z,99779.14
2023-02-19T04:56:46.415Z,99783.03
2023-02-19T05:01:47.920Z,99787.13
2023-02-19T05:06:50.177Z,99785.27
2023-02-19T05:11:51.744Z,99789.19
2023-02-19T05:16:53.296Z,99784.11
2023-02-19T05:21:54.820Z,99777.00
2023-02-19T05:26:56.353Z,99774.47
2023-02-19T05:31:57.993Z,99771.74
2023-02-19T05:36:59.509Z,99765.59
2023-02-19T05:42:00.996Z,99764.23
2023-02-19T05:47:02.468Z,99756.07
2023-02-19T05:52:04.414Z,99746.58
2023-02-19T05:57:05.934Z,99748.96
2023-02-19T06:02:07.448Z,99743.70
2023-02-19T06:07:09.359Z,99742.15
2023-02-19T06:12:10.832Z,99754.53
2023-02-19T06:17:12.413Z,99761.66
2023-02-19T06:22:15.619Z,99764.38
2023-02-19T06:27:17.290Z,99766.92
2023-02-19T06:32:19.385Z,99772.71
2023-02-19T06:37:20.949Z,99781.88
2023-02-19T06:42:22.924Z,99783.92
2023-02-19T06:47:25.479Z,99786.27
2023-02-19T06:52:28.093Z,99787.58
2023-02-19T06:57:29.640Z,99787.55
2023-02-19T07:02:31.169Z,99785.64
2023-02-19T07:07:32.745Z,99787.49
2023-02-19T07:12:34.243Z,99786.45
2023-02-19T07:17:35.978Z,99791.73
2023-02-19T07:22:37.504Z,99789.83
2023-02-19T07:27:40.201Z,99787.05
2023-02-19T07:32:42.676Z,99787.68
2023-02-19T07:37:44.207Z,99791.95
2023-02-19T07:42:45.852Z,99792.11
2023-02-19T07:47:47.350Z,99794.64
2023-02-19T07:52:48.834Z,99798.08
2023-02-19T07:57:50.443Z,99802.92
2023-02-19T08:03:02.008Z,99810.19
2023-02-19T08:08:06.596Z,99813.05
2023-02-19T08:13:22.472Z,99812.19
2023-02-19T08:18:25.177Z,99810.59
2023-02-19T08:23:28.566Z,99816.56
2023-02-19T08:28:30.588Z,99821.23
2023-02-19T08:33:32.410Z,99819.15
2023-02-19T08:38:35.957Z,99817.38
2023-02-19T08:43:38.088Z,99819.58
2023-02-19T08:48:40.606Z,99825.89
2023-02-19T08:53:42.284Z,99831.73
2023-02-19T08:58:44.713Z,99833.12
2023-02-19T09:03:46.283Z,99834.77
2023-02-19T09:08:47.751Z,99825.94
2023-02-19T09:13:49.291Z,99821.96
2023-02-19T09:18:50.771Z,99820.01
2023-02-19T09:23:52.441Z,99815.55
2023-02-19T09:28:54.940Z,99819.70
2023-02-19T09:33:56.421Z,99822.90
2023-02-19T09:39:00.393Z,99821.44
2023-02-19T09:44:05.004Z,99826.23
2023-02-19T09:49:13.948Z,99835.15
2023-02-19T09:54:23.460Z,99835.55
2023-02-19T09:59:28.667Z,99840.08
2023-02-19T10:04:30.199Z,99841.45
2023-02-19T10:09:31.755Z,99846.85
2023-02-19T10:14:44.648Z,99847.52
2023-02-19T10:19:46.360Z,99842.71
2023-02-19T10:24:53.047Z,99837.33
2023-02-19T10:29:54.661Z,99838.41
2023-02-19T10:35:13.880Z,99839.19
2023-02-19T10:40:18.149Z,99847.12
2023-02-19T10:45:42.959Z,99856.66
2023-02-19T10:50:51.324Z,99861.92
2023-02-19T10:56:26.770Z,99865.68
2023-02-19T11:01:28.481Z,99860.59
2023-02-19T11:06:30.178Z,99860.96
2023-02-19T11:11:37.543Z,99857.48
2023-02-19T11:16:46.417Z,99857.95
2023-02-19T11:21:48.049Z,99862.95
2023-02-19T11:26:49.641Z,99869.95
2023-02-19T11:31:51.655Z,99864.05
2023-02-19T11:37:10.223Z,99867.10
2023-02-19T11:42:38.581Z,99870.20
2023-02-19T11:47:58.963Z,99859.55
2023-02-19T11:53:17.485Z,99862.60
2023-02-19T11:58:40.133Z,99870.52
2023-02-19T12:04:09.844Z,99871.11
2023-02-19T12:09:39.355Z,99877.43
2023-02-19T12:14:53.026Z,99877.31
2023-02-19T12:20:19.945Z,99885.55
2023-02-19T12:25:31.791Z,99894.92
2023-02-19T12:31:10.712Z,99902.84
2023-02-19T12:36:35.640Z,99899.00
2023-02-19T12:41:49.124Z,99909.48
2023-02-19T12:47:01.629Z,99922.48
2023-02-19T12:52:26.131Z,99919.02
2023-02-19T12:57:31.738Z,99925.83
2023-02-19T13:02:57.698Z,99926.39
2023-02-19T13:08:23.738Z,99933.77
2023-02-19T13:13:38.469Z,99931.86
2023-02-19T13:18:46.007Z,99934.08
2023-02-19T13:23:59.657Z,99945.27
2023-02-19T13:29:16.375Z,99943.86
2023-02-19T13:34:32.448Z,99952.52
2023-02-19T13:39:34.519Z,99955.13
2023-02-19T13:44:39.974Z,99956.96
2023-02-19T13:49:42.288Z,99966.44
2023-02-19T13:54:44.045Z,99972.12
2023-02-19T13:59:47.184Z,99977.52
2023-02-19T14:04:51.972Z,99977.77
2023-02-19T14:09:54.949Z,99972.45
2023-02-19T14:14:57.753Z,99980.48
2023-02-19T14:20:03.096Z,99992.11
2023-02-19T14:25:18.955Z,100010.42
2023-02-19T14:30:22.453Z,100011.36
2023-02-19T14:35:31.169Z,100014.30
2023-02-19T14:40:41.662Z,100015.33
2023-02-19T14:45:51.982Z,100019.23
2023-02-19T14:51:00.441Z,100027.38
2023-02-19T14:56:02.070Z,100027.01
2023-02-19T15:01:05.937Z,100029.88
2023-02-19T15:06:09.080Z,100034.15
2023-02-19T15:11:20.790Z,100043.73
2023-02-19T15:16:26.032Z,100056.20
2023-02-19T15:21:30.648Z,100060.14
2023-02-19T15:26:35.931Z,100062.02
2023-02-19T15:31:54.462Z,100067.83
2023-02-19T15:37:05.518Z,100076.20
2023-02-19T15:42:11.181Z,100080.66
2023-02-19T15:47:46.694Z,100084.24
2023-02-19T15:52:48.246Z,100094.96
2023-02-19T15:57:58.562Z,100107.08
2023-02-19T16:03:00.733Z,100108.46
2023-02-19T16:08:11.386Z,100116.98
2023-02-19T16:13:12.923Z,100128.23
2023-02-19T16:18:15.313Z,100136.77
2023-02-19T16:23:20.852Z,100150.04
2023-02-19T16:28:24.924Z,100154.64
2023-02-19T16:33:41.803Z,100160.95
2023-02-19T16:38:59.572Z,100172.69
2023-02-19T16:44:06.696Z,100184.61
2023-02-19T16:49:10.192Z,100186.47
2023-02-19T16:54:12.725Z,100194.63
2023-02-19T16:59:14.241Z,100201.23
2023-02-19T17:04:16.284Z,100203.77
2023-02-19T17:09:17.852Z,100211.08
2023-02-19T17:14:19.555Z,100217.19
2023-02-19T17:19:22.381Z,100223.30
2023-02-19T17:24:24.773Z,100224.52
2023-02-19T17:29:28.442Z,100223.33
2023-02-19T17:34:30.163Z,100225.04
2023-02-19T17:39:31.698Z,100229.78
2023-02-19T17:44:33.212Z,100238.78
2023-02-19T17:49:36.378Z,100248.78
2023-02-19T17:54:38.015Z,100254.38
2023-02-19T17:59:41.225Z,100261.31
2023-02-19T18:04:42.839Z,100270.97
2023-02-19T18:09:44.548Z,100280.11
2023-02-19T18:14:46.649Z,100291.30
2023-02-19T18:19:48.300Z,100305.36
2023-02-19T18:24:52.877Z,100308.74
2023-02-19T18:29:56.740Z,100315.83
2023-02-19T18:35:00.157Z,100327.52
2023-02-19T18:40:04.908Z,100331.35
2023-02-19T18:45:07.091Z,100332.98
2023-02-19T18:50:10.857Z,100335.80
2023-02-19T18:55:13.848Z,100332.86
2023-02-19T19:00:27.540Z,100340.80
2023-02-19T19:05:29.153Z,100338.05
2023-02-19T19:10:30.962Z,100349.18
2023-02-19T19:15:32.552Z,100356.06
2023-02-19T19:20:34.109Z,100370.58
2023-02-19T19:25:35.688Z,100372.57
2023-02-19T19:30:37.896Z,100380.84
2023-02-19T19:35:39.528Z,100382.45
2023-02-19T19:40:42.398Z,100386.80
2023-02-19T19:45:43.891Z,100400.80
2023-02-19T19:50:45.376Z,100404.45
2023-02-19T19:55:46.925Z,100410.49
2023-02-19T20:00:49.244Z,100411.66
2023-02-19T20:05:51.347Z,100418.39
2023-02-19T20:10:52.936Z,100416.33
2023-02-19T20:15:54.564Z,100421.20
2023-02-19T20:20:56.374Z,100421.36
2023-02-19T20:25:57.881Z,100424.84
2023-02-19T20:30:59.404Z,100425.95
2023-02-19T20:36:01.010Z,100428.05
2023-02-19T20:41:03.028Z,100428.33
2023-02-19T20:46:04.902Z,100440.45
2023-02-19T20:51:06.468Z,100450.71
2023-02-19T20:56:11.521Z,100468.24
2023-02-19T21:01:13.325Z,100473.59
2023-02-19T21:06:15.013Z,100479.25
2023-02-19T21:11:16.933Z,100484.23
2023-02-19T21:16:18.563Z,100492.42
2023-02-19T21:21:25.198Z,100489.14
2023-02-19T21:26:35.724Z,100491.93
2023-02-19T21:31:40.327Z,100497.95
2023-02-19T21:36:42.443Z,100510.53
2023-02-19T21:41:44.037Z,100514.64
2023-02-19T21:46:45.542Z,100516.81
2023-02-19T21:51:50.423Z,100507.95
2023-02-19T21:56:53.551Z,100508.55
2023-02-19T22:01:57.540Z,100517.63
2023-02-19T22:06:59.230Z,100518.52
2023-02-19T22:12:00.755Z,100515.56
2023-02-19T22:17:02.297Z,100522.95
2023-02-19T22:22:04.161Z,100527.33
2023-02-19T22:27:05.718Z,100527.61
2023-02-19T22:32:07.422Z,100533.16
2023-02-19T22:37:10.282Z,100545.13
2023-02-19T22:42:11.836Z,100547.66
2023-02-19T22:47:13.401Z,100544.89
2023-02-19T22:52:15.127Z,100544.50
2023-02-19T22:57:16.652Z,100548.39
2023-02-19T23:02:18.150Z,100540.98
2023-02-19T23:07:19.722Z,100539.14
2023-02-19T23:12:21.213Z,100534.66
2023-02-19T23:17:22.678Z,100531.77
2023-02-19T23:22:24.661Z,100531.65
2023-02-19T23:27:28.402Z,100531.94
2023-02-19T23:32:29.931Z,100523.58
2023-02-19T23:37:32.166Z,100514.39
2023-02-19T23:42:33.715Z,100524.52
2023-02-19T23:47:35.221Z,100531.56
2023-02-19T23:52:36.752Z,100542.35
2023-02-19T23:57:38.249Z,100545.20
